Terminal Aerodrome Forecast
Issued by NWS

Home | Current Version | Previous Version | Text Only | Print | Product List | Glossary On
Versions: 1 2 3 4 5 6 7 8 9 10 11 12 13 14 15 16 17 18
200
FTUS41 KCAR 201720
TAFHUL
TAF
KHUL 201720Z 2018/2118 36011KT P6SM VCSH SCT035
     FM202100 35012KT P6SM OVC029
     FM211500 32012KT P6SM OVC040=

USA.gov is the U.S. government's official web portal to all federal, state and local government web resources and services.